sensor_id;sensor_type;location;lat;lon;timestamp;P1;durP1;ratioP1;P2;durP2;ratioP2
80273;SDS011;69576;51.902;-8.462;2023-12-29T00:01:31;14.20;;;2.42;;
80273;SDS011;69576;51.902;-8.462;2023-12-29T00:04:00;7.95;;;2.50;;
80273;SDS011;69576;51.902;-8.462;2023-12-29T00:06:28;10.40;;;2.47;;
80273;SDS011;69576;51.902;-8.462;2023-12-29T00:08:59;9.98;;;1.70;;
80273;SDS011;69576;51.902;-8.462;2023-12-29T00:11:25;10.18;;;2.17;;
80273;SDS011;69576;51.902;-8.462;2023-12-29T00:13:51;10.95;;;2.65;;
80273;SDS011;69576;51.902;-8.462;2023-12-29T00:16:16;8.20;;;2.45;;
80273;SDS011;69576;51.902;-8.462;2023-12-29T00:18:43;4.30;;;1.88;;
80273;SDS011;69576;51.902;-8.462;2023-12-29T00:21:11;7.05;;;2.30;;
80273;SDS011;69576;51.902;-8.462;2023-12-29T00:23:36;6.60;;;2.15;;
80273;SDS011;69576;51.902;-8.462;2023-12-29T00:26:05;9.20;;;2.22;;
80273;SDS011;69576;51.902;-8.462;2023-12-29T00:28:31;9.05;;;2.17;;
80273;SDS011;69576;51.902;-8.462;2023-12-29T00:31:01;5.82;;;2.33;;
80273;SDS011;69576;51.902;-8.462;2023-12-29T00:33:31;8.20;;;2.72;;
80273;SDS011;69576;51.902;-8.462;2023-12-29T00:35:59;9.40;;;1.98;;
80273;SDS011;69576;51.902;-8.462;2023-12-29T00:38:28;6.72;;;2.22;;
80273;SDS011;69576;51.902;-8.462;2023-12-29T00:40:54;5.57;;;2.20;;
80273;SDS011;69576;51.902;-8.462;2023-12-29T00:43:20;7.60;;;1.98;;
80273;SDS011;69576;51.902;-8.462;2023-12-29T00:45:47;8.45;;;2.22;;
80273;SDS011;69576;51.902;-8.462;2023-12-29T00:48:16;13.15;;;2.30;;
80273;SDS011;69576;51.902;-8.462;2023-12-29T00:50:46;5.88;;;2.38;;
80273;SDS011;69576;51.902;-8.462;2023-12-29T00:53:12;8.45;;;2.10;;
80273;SDS011;69576;51.902;-8.462;2023-12-29T00:55:38;10.30;;;2.03;;
80273;SDS011;69576;51.902;-8.462;2023-12-29T00:58:06;10.95;;;2.50;;
80273;SDS011;69576;51.902;-8.462;2023-12-29T01:00:34;4.82;;;1.52;;
80273;SDS011;69576;51.902;-8.462;2023-12-29T01:03:00;8.13;;;1.90;;
80273;SDS011;69576;51.902;-8.462;2023-12-29T01:05:25;6.45;;;1.90;;
80273;SDS011;69576;51.902;-8.462;2023-12-29T01:07:54;8.75;;;1.83;;
80273;SDS011;69576;51.902;-8.462;2023-12-29T01:10:20;5.28;;;1.60;;
80273;SDS011;69576;51.902;-8.462;2023-12-29T01:12:45;8.07;;;2.05;;
80273;SDS011;69576;51.902;-8.462;2023-12-29T01:15:11;5.00;;;1.50;;
80273;SDS011;69576;51.902;-8.462;2023-12-29T01:17:39;8.88;;;1.90;;
80273;SDS011;69576;51.902;-8.462;2023-12-29T01:20:05;5.93;;;1.80;;
80273;SDS011;69576;51.902;-8.462;2023-12-29T01:22:34;6.40;;;1.90;;
80273;SDS011;69576;51.902;-8.462;2023-12-29T01:25:02;8.23;;;1.98;;
80273;SDS011;69576;51.902;-8.462;2023-12-29T01:27:30;3.85;;;1.40;;
80273;SDS011;69576;51.902;-8.462;2023-12-29T01:30:01;9.30;;;2.22;;
80273;SDS011;69576;51.902;-8.462;2023-12-29T01:32:27;6.22;;;2.03;;
80273;SDS011;69576;51.902;-8.462;2023-12-29T01:34:55;10.95;;;2.03;;
80273;SDS011;69576;51.902;-8.462;2023-12-29T01:37:20;4.28;;;1.60;;
80273;SDS011;69576;51.902;-8.462;2023-12-29T01:39:46;4.53;;;1.73;;
80273;SDS011;69576;51.902;-8.462;2023-12-29T01:42:17;8.07;;;1.85;;
80273;SDS011;69576;51.902;-8.462;2023-12-29T01:44:44;7.07;;;1.70;;
80273;SDS011;69576;51.902;-8.462;2023-12-29T01:47:13;7.13;;;1.73;;
80273;SDS011;69576;51.902;-8.462;2023-12-29T01:49:46;6.03;;;2.40;;
80273;SDS011;69576;51.902;-8.462;2023-12-29T01:52:15;6.43;;;2.55;;
80273;SDS011;69576;51.902;-8.462;2023-12-29T01:54:42;5.43;;;1.30;;
80273;SDS011;69576;51.902;-8.462;2023-12-29T01:57:11;5.85;;;2.55;;
80273;SDS011;69576;51.902;-8.462;2023-12-29T01:59:42;9.48;;;1.90;;
80273;SDS011;69576;51.902;-8.462;2023-12-29T02:02:10;4.95;;;1.40;;
80273;SDS011;69576;51.902;-8.462;2023-12-29T02:04:40;8.02;;;1.90;;
80273;SDS011;69576;51.902;-8.462;2023-12-29T02:07:06;4.53;;;2.08;;
80273;SDS011;69576;51.902;-8.462;2023-12-29T02:09:32;5.45;;;1.67;;
80273;SDS011;69576;51.902;-8.462;2023-12-29T02:11:59;4.63;;;1.63;;
80273;SDS011;69576;51.902;-8.462;2023-12-29T02:14:25;8.15;;;1.80;;
80273;SDS011;69576;51.902;-8.462;2023-12-29T02:17:01;2.95;;;1.73;;
80273;SDS011;69576;51.902;-8.462;2023-12-29T02:19:42;3.85;;;2.25;;
80273;SDS011;69576;51.902;-8.462;2023-12-29T02:22:16;5.70;;;1.70;;
80273;SDS011;69576;51.902;-8.462;2023-12-29T02:24:49;4.72;;;1.73;;
80273;SDS011;69576;51.902;-8.462;2023-12-29T02:27:23;4.38;;;1.95;;
80273;SDS011;69576;51.902;-8.462;2023-12-29T02:30:06;2.72;;;1.58;;
80273;SDS011;69576;51.902;-8.462;2023-12-29T02:32:33;4.45;;;1.60;;
80273;SDS011;69576;51.902;-8.462;2023-12-29T02:35:06;10.75;;;1.80;;
80273;SDS011;69576;51.902;-8.462;2023-12-29T02:37:36;8.13;;;1.83;;
80273;SDS011;69576;51.902;-8.462;2023-12-29T02:40:08;6.95;;;1.73;;
80273;SDS011;69576;51.902;-8.462;2023-12-29T02:42:39;9.82;;;1.85;;
80273;SDS011;69576;51.902;-8.462;2023-12-29T02:45:12;4.05;;;1.50;;
80273;SDS011;69576;51.902;-8.462;2023-12-29T02:47:43;5.57;;;1.52;;
80273;SDS011;69576;51.902;-8.462;2023-12-29T02:50:11;5.45;;;1.80;;
80273;SDS011;69576;51.902;-8.462;2023-12-29T02:52:37;5.72;;;1.77;;
80273;SDS011;69576;51.902;-8.462;2023-12-29T02:55:06;9.57;;;1.80;;
80273;SDS011;69576;51.902;-8.462;2023-12-29T02:57:34;3.80;;;1.30;;
80273;SDS011;69576;51.902;-8.462;2023-12-29T03:00:00;9.65;;;1.95;;
80273;SDS011;69576;51.902;-8.462;2023-12-29T03:02:31;8.25;;;1.85;;
80273;SDS011;69576;51.902;-8.462;2023-12-29T03:05:00;5.65;;;2.17;;
80273;SDS011;69576;51.902;-8.462;2023-12-29T03:07:26;9.32;;;1.88;;
80273;SDS011;69576;51.902;-8.462;2023-12-29T03:09:51;7.78;;;2.00;;
80273;SDS011;69576;51.902;-8.462;2023-12-29T03:12:17;7.88;;;1.65;;
80273;SDS011;69576;51.902;-8.462;2023-12-29T03:14:43;4.88;;;1.55;;
80273;SDS011;69576;51.902;-8.462;2023-12-29T03:17:10;7.75;;;2.25;;
80273;SDS011;69576;51.902;-8.462;2023-12-29T03:19:36;7.90;;;1.77;;
80273;SDS011;69576;51.902;-8.462;2023-12-29T03:22:02;7.53;;;2.08;;
80273;SDS011;69576;51.902;-8.462;2023-12-29T03:24:29;7.90;;;2.08;;
80273;SDS011;69576;51.902;-8.462;2023-12-29T03:26:55;4.45;;;1.77;;
80273;SDS011;69576;51.902;-8.462;2023-12-29T03:29:26;2.67;;;1.50;;
80273;SDS011;69576;51.902;-8.462;2023-12-29T03:31:51;3.47;;;1.90;;
80273;SDS011;69576;51.902;-8.462;2023-12-29T03:34:17;9.38;;;1.90;;
80273;SDS011;69576;51.902;-8.462;2023-12-29T03:36:45;10.48;;;2.28;;
80273;SDS011;69576;51.902;-8.462;2023-12-29T03:39:10;8.70;;;2.20;;
80273;SDS011;69576;51.902;-8.462;2023-12-29T03:41:39;7.53;;;1.73;;
80273;SDS011;69576;51.902;-8.462;2023-12-29T03:44:04;4.32;;;1.83;;
80273;SDS011;69576;51.902;-8.462;2023-12-29T03:46:31;8.48;;;1.88;;
80273;SDS011;69576;51.902;-8.462;2023-12-29T03:49:02;6.30;;;2.10;;
80273;SDS011;69576;51.902;-8.462;2023-12-29T03:51:28;5.55;;;2.22;;
80273;SDS011;69576;51.902;-8.462;2023-12-29T03:53:54;8.25;;;1.85;;
80273;SDS011;69576;51.902;-8.462;2023-12-29T03:56:23;7.63;;;2.13;;
80273;SDS011;69576;51.902;-8.462;2023-12-29T03:58:49;4.75;;;1.55;;
80273;SDS011;69576;51.902;-8.462;2023-12-29T04:01:17;6.00;;;2.00;;
80273;SDS011;69576;51.902;-8.462;2023-12-29T04:03:45;8.73;;;1.92;;
80273;SDS011;69576;51.902;-8.462;2023-12-29T04:06:11;7.35;;;1.85;;
80273;SDS011;69576;51.902;-8.462;2023-12-29T04:08:38;8.77;;;1.90;;
80273;SDS011;69576;51.902;-8.462;2023-12-29T04:11:04;9.63;;;2.40;;
80273;SDS011;69576;51.902;-8.462;2023-12-29T04:13:31;2.42;;;1.40;;
80273;SDS011;69576;51.902;-8.462;2023-12-29T04:15:57;12.63;;;2.45;;
80273;SDS011;69576;51.902;-8.462;2023-12-29T04:18:28;7.63;;;1.65;;
80273;SDS011;69576;51.902;-8.462;2023-12-29T04:20:56;5.35;;;1.50;;
80273;SDS011;69576;51.902;-8.462;2023-12-29T04:23:22;7.70;;;2.08;;
80273;SDS011;69576;51.902;-8.462;2023-12-29T04:25:51;6.57;;;1.58;;
80273;SDS011;69576;51.902;-8.462;2023-12-29T04:28:17;5.47;;;1.92;;
80273;SDS011;69576;51.902;-8.462;2023-12-29T04:30:43;6.00;;;1.60;;
80273;SDS011;69576;51.902;-8.462;2023-12-29T04:33:09;7.28;;;1.98;;
80273;SDS011;69576;51.902;-8.462;2023-12-29T04:35:34;6.93;;;1.70;;
80273;SDS011;69576;51.902;-8.462;2023-12-29T04:38:00;10.00;;;1.60;;
80273;SDS011;69576;51.902;-8.462;2023-12-29T04:40:26;6.72;;;1.52;;
80273;SDS011;69576;51.902;-8.462;2023-12-29T04:42:57;7.28;;;2.00;;
80273;SDS011;69576;51.902;-8.462;2023-12-29T04:45:25;6.18;;;1.70;;
80273;SDS011;69576;51.902;-8.462;2023-12-29T04:47:53;6.85;;;1.85;;
80273;SDS011;69576;51.902;-8.462;2023-12-29T04:50:21;7.75;;;1.42;;
80273;SDS011;69576;51.902;-8.462;2023-12-29T04:52:51;5.95;;;2.30;;
80273;SDS011;69576;51.902;-8.462;2023-12-29T04:55:18;7.75;;;1.80;;
80273;SDS011;69576;51.902;-8.462;2023-12-29T04:57:43;5.90;;;1.60;;
80273;SDS011;69576;51.902;-8.462;2023-12-29T05:00:11;4.22;;;1.77;;
80273;SDS011;69576;51.902;-8.462;2023-12-29T05:02:40;10.15;;;2.80;;
80273;SDS011;69576;51.902;-8.462;2023-12-29T05:05:05;5.32;;;1.60;;
80273;SDS011;69576;51.902;-8.462;2023-12-29T05:07:35;5.47;;;1.55;;
80273;SDS011;69576;51.902;-8.462;2023-12-29T05:10:00;7.70;;;2.00;;
80273;SDS011;69576;51.902;-8.462;2023-12-29T05:12:26;4.82;;;1.38;;
80273;SDS011;69576;51.902;-8.462;2023-12-29T05:14:52;6.35;;;2.15;;
80273;SDS011;69576;51.902;-8.462;2023-12-29T05:17:18;3.83;;;1.58;;
80273;SDS011;69576;51.902;-8.462;2023-12-29T05:19:46;8.40;;;1.85;;
80273;SDS011;69576;51.902;-8.462;2023-12-29T05:22:14;7.25;;;2.05;;
80273;SDS011;69576;51.902;-8.462;2023-12-29T05:24:47;4.65;;;1.73;;
80273;SDS011;69576;51.902;-8.462;2023-12-29T05:27:17;6.80;;;2.55;;
80273;SDS011;69576;51.902;-8.462;2023-12-29T05:29:46;5.85;;;1.58;;
80273;SDS011;69576;51.902;-8.462;2023-12-29T05:32:14;4.30;;;1.60;;
80273;SDS011;69576;51.902;-8.462;2023-12-29T05:34:39;7.32;;;2.17;;
80273;SDS011;69576;51.902;-8.462;2023-12-29T05:37:05;7.07;;;2.40;;
80273;SDS011;69576;51.902;-8.462;2023-12-29T05:39:33;3.58;;;1.63;;
80273;SDS011;69576;51.902;-8.462;2023-12-29T05:41:59;6.13;;;1.73;;
80273;SDS011;69576;51.902;-8.462;2023-12-29T05:44:27;3.47;;;1.40;;
80273;SDS011;69576;51.902;-8.462;2023-12-29T05:46:57;9.10;;;2.05;;
80273;SDS011;69576;51.902;-8.462;2023-12-29T05:49:26;9.20;;;1.88;;
80273;SDS011;69576;51.902;-8.462;2023-12-29T05:51:52;7.68;;;1.80;;
80273;SDS011;69576;51.902;-8.462;2023-12-29T05:54:23;7.35;;;2.00;;
80273;SDS011;69576;51.902;-8.462;2023-12-29T05:56:51;4.13;;;1.73;;
80273;SDS011;69576;51.902;-8.462;2023-12-29T05:59:18;5.05;;;1.90;;
80273;SDS011;69576;51.902;-8.462;2023-12-29T06:01:46;7.28;;;2.05;;
80273;SDS011;69576;51.902;-8.462;2023-12-29T06:04:12;4.57;;;1.70;;
80273;SDS011;69576;51.902;-8.462;2023-12-29T06:06:38;5.30;;;1.75;;
80273;SDS011;69576;51.902;-8.462;2023-12-29T06:09:06;7.95;;;1.95;;
80273;SDS011;69576;51.902;-8.462;2023-12-29T06:11:32;5.07;;;1.73;;
80273;SDS011;69576;51.902;-8.462;2023-12-29T06:14:00;7.03;;;2.67;;
80273;SDS011;69576;51.902;-8.462;2023-12-29T06:16:26;4.05;;;1.67;;
80273;SDS011;69576;51.902;-8.462;2023-12-29T06:18:52;8.55;;;1.90;;
80273;SDS011;69576;51.902;-8.462;2023-12-29T06:21:18;7.22;;;1.90;;
80273;SDS011;69576;51.902;-8.462;2023-12-29T06:23:44;3.28;;;1.42;;
80273;SDS011;69576;51.902;-8.462;2023-12-29T06:26:16;6.97;;;2.22;;
80273;SDS011;69576;51.902;-8.462;2023-12-29T06:28:46;4.45;;;1.63;;
80273;SDS011;69576;51.902;-8.462;2023-12-29T06:31:12;4.95;;;1.63;;
80273;SDS011;69576;51.902;-8.462;2023-12-29T06:33:41;4.43;;;1.65;;
80273;SDS011;69576;51.902;-8.462;2023-12-29T06:38:37;7.28;;;1.90;;
80273;SDS011;69576;51.902;-8.462;2023-12-29T06:41:06;4.68;;;1.52;;
80273;SDS011;69576;51.902;-8.462;2023-12-29T06:43:32;7.78;;;2.08;;
80273;SDS011;69576;51.902;-8.462;2023-12-29T06:45:58;7.95;;;1.80;;
80273;SDS011;69576;51.902;-8.462;2023-12-29T06:48:24;7.13;;;1.70;;
80273;SDS011;69576;51.902;-8.462;2023-12-29T06:50:50;6.45;;;1.65;;
80273;SDS011;69576;51.902;-8.462;2023-12-29T06:53:15;7.57;;;1.60;;
80273;SDS011;69576;51.902;-8.462;2023-12-29T06:55:41;2.72;;;0.88;;
80273;SDS011;69576;51.902;-8.462;2023-12-29T06:58:07;3.75;;;1.00;;
80273;SDS011;69576;51.902;-8.462;2023-12-29T07:00:35;6.13;;;1.08;;
80273;SDS011;69576;51.902;-8.462;2023-12-29T07:03:06;3.15;;;1.02;;
80273;SDS011;69576;51.902;-8.462;2023-12-29T07:05:32;3.92;;;0.98;;
80273;SDS011;69576;51.902;-8.462;2023-12-29T07:07:57;6.18;;;1.20;;
80273;SDS011;69576;51.902;-8.462;2023-12-29T07:10:30;3.20;;;1.15;;
80273;SDS011;69576;51.902;-8.462;2023-12-29T07:12:55;0.60;;;0.60;;
80273;SDS011;69576;51.902;-8.462;2023-12-29T07:15:21;4.15;;;1.23;;
80273;SDS011;69576;51.902;-8.462;2023-12-29T07:17:47;2.60;;;0.85;;
80273;SDS011;69576;51.902;-8.462;2023-12-29T07:20:13;3.63;;;1.20;;
80273;SDS011;69576;51.902;-8.462;2023-12-29T07:22:39;2.53;;;1.25;;
80273;SDS011;69576;51.902;-8.462;2023-12-29T07:25:05;1.10;;;0.90;;
80273;SDS011;69576;51.902;-8.462;2023-12-29T07:27:31;2.67;;;1.10;;
80273;SDS011;69576;51.902;-8.462;2023-12-29T07:30:00;3.58;;;1.00;;
80273;SDS011;69576;51.902;-8.462;2023-12-29T07:32:28;0.30;;;0.30;;
80273;SDS011;69576;51.902;-8.462;2023-12-29T07:34:58;2.97;;;1.08;;
80273;SDS011;69576;51.902;-8.462;2023-12-29T07:37:26;1.40;;;1.27;;
80273;SDS011;69576;51.902;-8.462;2023-12-29T07:39:52;0.88;;;0.77;;
80273;SDS011;69576;51.902;-8.462;2023-12-29T07:42:20;3.22;;;0.80;;
80273;SDS011;69576;51.902;-8.462;2023-12-29T07:44:48;1.20;;;0.80;;
80273;SDS011;69576;51.902;-8.462;2023-12-29T07:47:14;2.20;;;0.82;;
80273;SDS011;69576;51.902;-8.462;2023-12-29T07:49:42;1.48;;;0.95;;
80273;SDS011;69576;51.902;-8.462;2023-12-29T07:52:12;3.10;;;0.90;;
80273;SDS011;69576;51.902;-8.462;2023-12-29T07:54:45;1.75;;;0.95;;
80273;SDS011;69576;51.902;-8.462;2023-12-29T07:57:13;1.00;;;0.60;;
80273;SDS011;69576;51.902;-8.462;2023-12-29T07:59:39;1.55;;;0.90;;
80273;SDS011;69576;51.902;-8.462;2023-12-29T08:02:05;2.97;;;1.38;;
80273;SDS011;69576;51.902;-8.462;2023-12-29T08:04:34;3.08;;;1.00;;
80273;SDS011;69576;51.902;-8.462;2023-12-29T08:07:03;1.15;;;0.75;;
80273;SDS011;69576;51.902;-8.462;2023-12-29T08:09:29;1.42;;;1.33;;
80273;SDS011;69576;51.902;-8.462;2023-12-29T08:11:59;0.70;;;0.70;;
80273;SDS011;69576;51.902;-8.462;2023-12-29T08:14:27;1.38;;;0.82;;
80273;SDS011;69576;51.902;-8.462;2023-12-29T08:16:53;0.68;;;0.68;;
80273;SDS011;69576;51.902;-8.462;2023-12-29T08:19:21;4.07;;;1.10;;
80273;SDS011;69576;51.902;-8.462;2023-12-29T08:21:50;2.40;;;0.90;;
80273;SDS011;69576;51.902;-8.462;2023-12-29T08:24:18;2.03;;;0.68;;
80273;SDS011;69576;51.902;-8.462;2023-12-29T08:26:46;1.75;;;1.00;;
80273;SDS011;69576;51.902;-8.462;2023-12-29T08:29:13;3.20;;;1.27;;
80273;SDS011;69576;51.902;-8.462;2023-12-29T08:31:41;1.05;;;0.88;;
80273;SDS011;69576;51.902;-8.462;2023-12-29T08:34:08;1.23;;;1.10;;
80273;SDS011;69576;51.902;-8.462;2023-12-29T08:36:36;0.80;;;0.80;;
80273;SDS011;69576;51.902;-8.462;2023-12-29T08:39:02;1.75;;;0.80;;
80273;SDS011;69576;51.902;-8.462;2023-12-29T08:41:28;1.38;;;1.00;;
80273;SDS011;69576;51.902;-8.462;2023-12-29T08:43:53;2.20;;;0.82;;
80273;SDS011;69576;51.902;-8.462;2023-12-29T08:46:19;2.08;;;0.68;;
80273;SDS011;69576;51.902;-8.462;2023-12-29T08:48:47;3.08;;;1.02;;
80273;SDS011;69576;51.902;-8.462;2023-12-29T08:51:15;2.53;;;0.95;;
80273;SDS011;69576;51.902;-8.462;2023-12-29T08:53:46;2.17;;;1.05;;
80273;SDS011;69576;51.902;-8.462;2023-12-29T08:56:16;1.45;;;0.98;;
80273;SDS011;69576;51.902;-8.462;2023-12-29T08:58:42;2.60;;;1.20;;
80273;SDS011;69576;51.902;-8.462;2023-12-29T09:01:08;2.08;;;1.00;;
80273;SDS011;69576;51.902;-8.462;2023-12-29T09:03:34;2.88;;;1.08;;
80273;SDS011;69576;51.902;-8.462;2023-12-29T09:05:59;1.55;;;0.93;;
80273;SDS011;69576;51.902;-8.462;2023-12-29T09:08:28;2.22;;;1.15;;
80273;SDS011;69576;51.902;-8.462;2023-12-29T09:10:54;1.20;;;1.02;;
80273;SDS011;69576;51.902;-8.462;2023-12-29T09:13:22;3.67;;;1.02;;
80273;SDS011;69576;51.902;-8.462;2023-12-29T09:15:50;1.42;;;1.00;;
80273;SDS011;69576;51.902;-8.462;2023-12-29T09:18:22;1.67;;;1.02;;
80273;SDS011;69576;51.902;-8.462;2023-12-29T09:20:50;3.22;;;1.20;;
80273;SDS011;69576;51.902;-8.462;2023-12-29T09:23:16;1.50;;;0.90;;
80273;SDS011;69576;51.902;-8.462;2023-12-29T09:25:42;2.38;;;1.20;;
80273;SDS011;69576;51.902;-8.462;2023-12-29T09:28:08;1.23;;;0.70;;
80273;SDS011;69576;51.902;-8.462;2023-12-29T09:30:34;2.78;;;1.00;;
80273;SDS011;69576;51.902;-8.462;2023-12-29T09:32:59;1.25;;;0.82;;
80273;SDS011;69576;51.902;-8.462;2023-12-29T09:35:25;2.05;;;1.02;;
80273;SDS011;69576;51.902;-8.462;2023-12-29T09:37:51;1.20;;;0.70;;
80273;SDS011;69576;51.902;-8.462;2023-12-29T09:40:17;3.55;;;1.00;;
80273;SDS011;69576;51.902;-8.462;2023-12-29T09:42:45;2.47;;;1.00;;
80273;SDS011;69576;51.902;-8.462;2023-12-29T09:45:16;1.95;;;0.85;;
80273;SDS011;69576;51.902;-8.462;2023-12-29T09:47:48;1.42;;;1.25;;
80273;SDS011;69576;51.902;-8.462;2023-12-29T09:50:17;1.45;;;1.15;;
80273;SDS011;69576;51.902;-8.462;2023-12-29T09:52:44;1.00;;;0.90;;
80273;SDS011;69576;51.902;-8.462;2023-12-29T09:57:41;3.95;;;1.30;;
80273;SDS011;69576;51.902;-8.462;2023-12-29T10:00:11;2.50;;;1.55;;
80273;SDS011;69576;51.902;-8.462;2023-12-29T10:02:37;1.65;;;1.40;;
80273;SDS011;69576;51.902;-8.462;2023-12-29T10:05:06;2.05;;;1.90;;
80273;SDS011;69576;51.902;-8.462;2023-12-29T10:07:35;3.83;;;2.45;;
80273;SDS011;69576;51.902;-8.462;2023-12-29T10:10:08;3.05;;;1.98;;
80273;SDS011;69576;51.902;-8.462;2023-12-29T10:12:44;2.08;;;1.88;;
80273;SDS011;69576;51.902;-8.462;2023-12-29T10:15:31;3.38;;;1.80;;
80273;SDS011;69576;51.902;-8.462;2023-12-29T10:18:27;2.25;;;1.85;;
80273;SDS011;69576;51.902;-8.462;2023-12-29T10:23:56;1.30;;;1.20;;
80273;SDS011;69576;51.902;-8.462;2023-12-29T10:26:33;2.60;;;1.60;;
80273;SDS011;69576;51.902;-8.462;2023-12-29T10:29:02;2.13;;;1.92;;
80273;SDS011;69576;51.902;-8.462;2023-12-29T10:31:28;2.42;;;1.70;;
80273;SDS011;69576;51.902;-8.462;2023-12-29T10:36:50;2.95;;;1.55;;
80273;SDS011;69576;51.902;-8.462;2023-12-29T10:39:18;3.35;;;1.25;;
80273;SDS011;69576;51.902;-8.462;2023-12-29T10:41:43;2.35;;;1.77;;
80273;SDS011;69576;51.902;-8.462;2023-12-29T10:44:12;2.47;;;1.00;;
80273;SDS011;69576;51.902;-8.462;2023-12-29T10:46:40;1.98;;;1.77;;
80273;SDS011;69576;51.902;-8.462;2023-12-29T10:49:10;1.85;;;1.08;;
80273;SDS011;69576;51.902;-8.462;2023-12-29T10:51:39;3.55;;;2.05;;
80273;SDS011;69576;51.902;-8.462;2023-12-29T10:54:07;2.75;;;1.27;;
80273;SDS011;69576;51.902;-8.462;2023-12-29T10:56:33;2.72;;;1.52;;
80273;SDS011;69576;51.902;-8.462;2023-12-29T11:01:31;2.90;;;1.38;;
80273;SDS011;69576;51.902;-8.462;2023-12-29T11:04:03;1.17;;;1.02;;
80273;SDS011;69576;51.902;-8.462;2023-12-29T11:06:40;2.63;;;1.13;;
80273;SDS011;69576;51.902;-8.462;2023-12-29T11:09:12;1.80;;;1.00;;
80273;SDS011;69576;51.902;-8.462;2023-12-29T11:11:38;3.33;;;1.92;;
80273;SDS011;69576;51.902;-8.462;2023-12-29T11:14:07;3.05;;;1.25;;
80273;SDS011;69576;51.902;-8.462;2023-12-29T11:16:36;1.90;;;1.10;;
80273;SDS011;69576;51.902;-8.462;2023-12-29T11:19:04;1.15;;;1.08;;
80273;SDS011;69576;51.902;-8.462;2023-12-29T11:21:32;3.28;;;1.20;;
80273;SDS011;69576;51.902;-8.462;2023-12-29T11:24:00;2.08;;;1.25;;
80273;SDS011;69576;51.902;-8.462;2023-12-29T11:26:29;0.98;;;0.90;;
80273;SDS011;69576;51.902;-8.462;2023-12-29T11:28:55;1.45;;;1.10;;
80273;SDS011;69576;51.902;-8.462;2023-12-29T11:31:21;1.95;;;1.10;;
80273;SDS011;69576;51.902;-8.462;2023-12-29T11:33:52;2.40;;;1.20;;
80273;SDS011;69576;51.902;-8.462;2023-12-29T11:36:23;3.80;;;1.45;;
80273;SDS011;69576;51.902;-8.462;2023-12-29T11:42:02;6.18;;;1.83;;
80273;SDS011;69576;51.902;-8.462;2023-12-29T11:44:39;1.63;;;1.15;;
80273;SDS011;69576;51.902;-8.462;2023-12-29T11:47:33;1.88;;;1.48;;
80273;SDS011;69576;51.902;-8.462;2023-12-29T11:50:01;5.45;;;1.85;;
80273;SDS011;69576;51.902;-8.462;2023-12-29T11:52:37;2.40;;;1.23;;
80273;SDS011;69576;51.902;-8.462;2023-12-29T11:57:40;1.67;;;0.93;;
80273;SDS011;69576;51.902;-8.462;2023-12-29T12:00:07;5.65;;;1.25;;
80273;SDS011;69576;51.902;-8.462;2023-12-29T12:05:09;1.13;;;1.02;;
80273;SDS011;69576;51.902;-8.462;2023-12-29T12:12:51;1.58;;;1.00;;
80273;SDS011;69576;51.902;-8.462;2023-12-29T12:15:39;2.40;;;1.23;;
80273;SDS011;69576;51.902;-8.462;2023-12-29T12:20:36;3.50;;;1.65;;
80273;SDS011;69576;51.902;-8.462;2023-12-29T12:25:45;2.67;;;1.33;;
80273;SDS011;69576;51.902;-8.462;2023-12-29T12:28:14;3.75;;;1.10;;
80273;SDS011;69576;51.902;-8.462;2023-12-29T12:30:40;2.40;;;1.20;;
80273;SDS011;69576;51.902;-8.462;2023-12-29T12:33:08;2.40;;;1.48;;
80273;SDS011;69576;51.902;-8.462;2023-12-29T12:35:41;2.20;;;1.35;;
80273;SDS011;69576;51.902;-8.462;2023-12-29T12:38:16;1.60;;;1.08;;
80273;SDS011;69576;51.902;-8.462;2023-12-29T12:40:49;2.97;;;1.33;;
80273;SDS011;69576;51.902;-8.462;2023-12-29T12:43:15;2.20;;;1.00;;
80273;SDS011;69576;51.902;-8.462;2023-12-29T12:45:47;1.45;;;1.08;;
80273;SDS011;69576;51.902;-8.462;2023-12-29T12:48:27;2.22;;;1.30;;
80273;SDS011;69576;51.902;-8.462;2023-12-29T12:50:59;2.58;;;1.52;;
80273;SDS011;69576;51.902;-8.462;2023-12-29T12:53:25;4.10;;;2.72;;
80273;SDS011;69576;51.902;-8.462;2023-12-29T12:55:56;1.77;;;1.13;;
80273;SDS011;69576;51.902;-8.462;2023-12-29T12:58:22;3.63;;;1.15;;
80273;SDS011;69576;51.902;-8.462;2023-12-29T13:00:53;1.55;;;0.93;;
80273;SDS011;69576;51.902;-8.462;2023-12-29T13:03:22;2.35;;;1.13;;
80273;SDS011;69576;51.902;-8.462;2023-12-29T13:05:53;2.40;;;1.63;;
80273;SDS011;69576;51.902;-8.462;2023-12-29T13:08:23;2.15;;;0.95;;
80273;SDS011;69576;51.902;-8.462;2023-12-29T13:10:50;1.92;;;1.10;;
80273;SDS011;69576;51.902;-8.462;2023-12-29T13:13:16;0.98;;;0.98;;
80273;SDS011;69576;51.902;-8.462;2023-12-29T13:15:47;3.45;;;1.20;;
80273;SDS011;69576;51.902;-8.462;2023-12-29T13:18:14;2.05;;;1.35;;
80273;SDS011;69576;51.902;-8.462;2023-12-29T13:20:48;1.55;;;1.45;;
80273;SDS011;69576;51.902;-8.462;2023-12-29T13:23:15;3.92;;;1.25;;
80273;SDS011;69576;51.902;-8.462;2023-12-29T13:25:44;3.58;;;1.40;;
80273;SDS011;69576;51.902;-8.462;2023-12-29T13:28:14;2.30;;;1.10;;
80273;SDS011;69576;51.902;-8.462;2023-12-29T13:30:40;2.08;;;0.98;;
80273;SDS011;69576;51.902;-8.462;2023-12-29T13:33:27;2.17;;;1.00;;
80273;SDS011;69576;51.902;-8.462;2023-12-29T13:36:11;2.53;;;1.10;;
80273;SDS011;69576;51.902;-8.462;2023-12-29T13:38:49;2.50;;;1.30;;
80273;SDS011;69576;51.902;-8.462;2023-12-29T13:41:22;1.80;;;1.30;;
80273;SDS011;69576;51.902;-8.462;2023-12-29T13:43:50;2.50;;;1.20;;
80273;SDS011;69576;51.902;-8.462;2023-12-29T13:46:18;2.83;;;1.30;;
80273;SDS011;69576;51.902;-8.462;2023-12-29T13:48:44;3.53;;;1.30;;
80273;SDS011;69576;51.902;-8.462;2023-12-29T13:51:15;4.22;;;1.77;;
80273;SDS011;69576;51.902;-8.462;2023-12-29T13:53:42;2.53;;;1.30;;
80273;SDS011;69576;51.902;-8.462;2023-12-29T13:56:08;5.38;;;1.55;;
80273;SDS011;69576;51.902;-8.462;2023-12-29T13:58:35;3.08;;;1.40;;
80273;SDS011;69576;51.902;-8.462;2023-12-29T14:01:06;4.45;;;1.50;;
80273;SDS011;69576;51.902;-8.462;2023-12-29T14:03:42;4.20;;;1.60;;
80273;SDS011;69576;51.902;-8.462;2023-12-29T14:06:12;2.22;;;1.20;;
80273;SDS011;69576;51.902;-8.462;2023-12-29T14:08:52;5.07;;;1.67;;
80273;SDS011;69576;51.902;-8.462;2023-12-29T14:11:18;2.92;;;1.63;;
80273;SDS011;69576;51.902;-8.462;2023-12-29T14:13:45;3.30;;;1.88;;
80273;SDS011;69576;51.902;-8.462;2023-12-29T14:16:15;1.92;;;1.05;;
80273;SDS011;69576;51.902;-8.462;2023-12-29T14:26:31;3.67;;;1.23;;
80273;SDS011;69576;51.902;-8.462;2023-12-29T14:29:05;3.08;;;1.65;;
80273;SDS011;69576;51.902;-8.462;2023-12-29T14:31:35;1.40;;;1.00;;
80273;SDS011;69576;51.902;-8.462;2023-12-29T14:34:05;4.15;;;1.20;;
80273;SDS011;69576;51.902;-8.462;2023-12-29T14:36:35;2.63;;;1.48;;
80273;SDS011;69576;51.902;-8.462;2023-12-29T14:39:04;3.92;;;1.40;;
80273;SDS011;69576;51.902;-8.462;2023-12-29T14:41:31;3.53;;;1.40;;
80273;SDS011;69576;51.902;-8.462;2023-12-29T14:43:59;4.55;;;1.40;;
80273;SDS011;69576;51.902;-8.462;2023-12-29T14:46:30;2.63;;;1.67;;
80273;SDS011;69576;51.902;-8.462;2023-12-29T14:49:01;3.65;;;1.02;;
80273;SDS011;69576;51.902;-8.462;2023-12-29T14:51:29;2.20;;;1.30;;
80273;SDS011;69576;51.902;-8.462;2023-12-29T14:53:57;2.70;;;1.30;;
80273;SDS011;69576;51.902;-8.462;2023-12-29T14:56:23;2.42;;;1.40;;
80273;SDS011;69576;51.902;-8.462;2023-12-29T14:58:49;4.35;;;1.60;;
80273;SDS011;69576;51.902;-8.462;2023-12-29T15:01:17;3.30;;;1.58;;
80273;SDS011;69576;51.902;-8.462;2023-12-29T15:03:43;4.97;;;2.10;;
80273;SDS011;69576;51.902;-8.462;2023-12-29T15:06:09;2.22;;;1.13;;
80273;SDS011;69576;51.902;-8.462;2023-12-29T15:08:34;1.88;;;1.55;;
80273;SDS011;69576;51.902;-8.462;2023-12-29T15:11:02;4.15;;;1.80;;
80273;SDS011;69576;51.902;-8.462;2023-12-29T15:13:32;3.45;;;1.75;;
80273;SDS011;69576;51.902;-8.462;2023-12-29T15:18:27;3.88;;;1.45;;
80273;SDS011;69576;51.902;-8.462;2023-12-29T15:20:55;2.63;;;1.35;;
80273;SDS011;69576;51.902;-8.462;2023-12-29T15:23:21;2.65;;;1.23;;